< < Back
Terminal Aerodrome Forecast


Current Version              Previous Versions:   1  2  3  4  5  6  7  8  9  

Terminal Aerodrome Forecast

145
FTUS44 KOHX 241700
TAFCSV
TAF
KCSV 241720Z 2418/2518 VRB03KT P6SM SKC=

Latest METAR

946
SAUS70 KWBC 250400 RRB
MTRCSV
METAR KCSV 250353Z AUTO 00000KT 10SM CLR 07/04 A3010 RMK AO2 SLP190
T00720039


USA.gov is the U.S. government's official web portal to all federal, state and local government web resources and services.